sensor_id;sensor_type;location;lat;lon;timestamp;P1;durP1;ratioP1;P2;durP2;ratioP2
36797;SDS011;22748;8.426;99.512;2023-02-13T00:00:59;24.23;;;16.17;;
36797;SDS011;22748;8.426;99.512;2023-02-13T00:03:31;25.15;;;17.42;;
36797;SDS011;22748;8.426;99.512;2023-02-13T00:06:01;31.73;;;19.08;;
36797;SDS011;22748;8.426;99.512;2023-02-13T00:08:30;31.13;;;19.45;;
36797;SDS011;22748;8.426;99.512;2023-02-13T00:11:04;37.75;;;21.77;;
36797;SDS011;22748;8.426;99.512;2023-02-13T00:16:04;25.15;;;18.35;;
36797;SDS011;22748;8.426;99.512;2023-02-13T00:18:35;20.42;;;17.67;;
36797;SDS011;22748;8.426;99.512;2023-02-13T00:21:06;30.90;;;20.95;;
36797;SDS011;22748;8.426;99.512;2023-02-13T00:23:37;35.38;;;22.55;;
36797;SDS011;22748;8.426;99.512;2023-02-13T00:26:09;27.80;;;21.88;;
36797;SDS011;22748;8.426;99.512;2023-02-13T00:28:39;32.13;;;23.42;;
36797;SDS011;22748;8.426;99.512;2023-02-13T00:31:10;39.90;;;25.63;;
36797;SDS011;22748;8.426;99.512;2023-02-13T00:33:43;37.17;;;24.98;;
36797;SDS011;22748;8.426;99.512;2023-02-13T00:36:14;30.33;;;24.10;;
36797;SDS011;22748;8.426;99.512;2023-02-13T00:38:47;32.47;;;25.10;;
36797;SDS011;22748;8.426;99.512;2023-02-13T00:41:17;34.60;;;25.80;;
36797;SDS011;22748;8.426;99.512;2023-02-13T00:43:46;31.15;;;24.50;;
36797;SDS011;22748;8.426;99.512;2023-02-13T00:46:17;35.75;;;25.60;;
36797;SDS011;22748;8.426;99.512;2023-02-13T00:48:48;30.23;;;23.38;;
36797;SDS011;22748;8.426;99.512;2023-02-13T00:51:18;33.50;;;26.65;;
36797;SDS011;22748;8.426;99.512;2023-02-13T00:53:47;31.02;;;24.75;;
36797;SDS011;22748;8.426;99.512;2023-02-13T00:56:16;42.90;;;34.03;;
36797;SDS011;22748;8.426;99.512;2023-02-13T00:58:46;41.20;;;28.88;;
36797;SDS011;22748;8.426;99.512;2023-02-13T01:01:16;33.38;;;25.48;;
36797;SDS011;22748;8.426;99.512;2023-02-13T01:03:46;32.03;;;25.30;;
36797;SDS011;22748;8.426;99.512;2023-02-13T01:06:19;32.58;;;26.85;;
36797;SDS011;22748;8.426;99.512;2023-02-13T01:08:48;36.17;;;26.90;;
36797;SDS011;22748;8.426;99.512;2023-02-13T01:11:19;36.40;;;27.88;;
36797;SDS011;22748;8.426;99.512;2023-02-13T01:13:48;32.10;;;26.20;;
36797;SDS011;22748;8.426;99.512;2023-02-13T01:16:19;36.08;;;26.02;;
36797;SDS011;22748;8.426;99.512;2023-02-13T01:18:51;28.63;;;23.08;;
36797;SDS011;22748;8.426;99.512;2023-02-13T01:21:22;28.23;;;23.20;;
36797;SDS011;22748;8.426;99.512;2023-02-13T01:23:52;26.30;;;21.45;;
36797;SDS011;22748;8.426;99.512;2023-02-13T01:26:22;24.57;;;21.57;;
36797;SDS011;22748;8.426;99.512;2023-02-13T01:28:53;28.75;;;23.10;;
36797;SDS011;22748;8.426;99.512;2023-02-13T01:31:25;29.40;;;23.25;;
36797;SDS011;22748;8.426;99.512;2023-02-13T01:33:58;26.98;;;20.85;;
36797;SDS011;22748;8.426;99.512;2023-02-13T01:36:28;28.85;;;21.38;;
36797;SDS011;22748;8.426;99.512;2023-02-13T01:38:59;26.40;;;22.10;;
36797;SDS011;22748;8.426;99.512;2023-02-13T01:41:29;25.90;;;21.40;;
36797;SDS011;22748;8.426;99.512;2023-02-13T01:44:00;31.27;;;23.57;;
36797;SDS011;22748;8.426;99.512;2023-02-13T01:46:30;25.73;;;21.85;;
36797;SDS011;22748;8.426;99.512;2023-02-13T01:49:04;31.42;;;22.42;;
36797;SDS011;22748;8.426;99.512;2023-02-13T01:51:39;26.80;;;21.08;;
36797;SDS011;22748;8.426;99.512;2023-02-13T01:54:11;22.70;;;20.02;;
36797;SDS011;22748;8.426;99.512;2023-02-13T01:56:45;26.70;;;21.35;;
36797;SDS011;22748;8.426;99.512;2023-02-13T01:59:19;25.02;;;21.10;;
36797;SDS011;22748;8.426;99.512;2023-02-13T02:01:55;27.35;;;21.80;;
36797;SDS011;22748;8.426;99.512;2023-02-13T02:04:29;21.95;;;19.65;;
36797;SDS011;22748;8.426;99.512;2023-02-13T02:07:03;23.75;;;19.58;;
36797;SDS011;22748;8.426;99.512;2023-02-13T02:09:41;22.60;;;19.25;;
36797;SDS011;22748;8.426;99.512;2023-02-13T02:12:15;23.75;;;19.83;;
36797;SDS011;22748;8.426;99.512;2023-02-13T02:14:51;21.13;;;16.90;;
36797;SDS011;22748;8.426;99.512;2023-02-13T02:17:24;20.30;;;17.15;;
36797;SDS011;22748;8.426;99.512;2023-02-13T02:20:02;21.35;;;17.73;;
36797;SDS011;22748;8.426;99.512;2023-02-13T02:22:49;18.73;;;16.85;;
36797;SDS011;22748;8.426;99.512;2023-02-13T02:28:48;20.17;;;16.83;;
36797;SDS011;22748;8.426;99.512;2023-02-13T02:31:51;19.33;;;16.92;;
36797;SDS011;22748;8.426;99.512;2023-02-13T02:34:38;20.55;;;17.65;;
36797;SDS011;22748;8.426;99.512;2023-02-13T02:37:19;20.20;;;17.05;;
36797;SDS011;22748;8.426;99.512;2023-02-13T02:40:09;18.25;;;15.68;;
36797;SDS011;22748;8.426;99.512;2023-02-13T02:43:02;20.15;;;15.95;;
36797;SDS011;22748;8.426;99.512;2023-02-13T02:45:42;18.85;;;15.40;;
36797;SDS011;22748;8.426;99.512;2023-02-13T02:48:22;16.27;;;14.48;;
36797;SDS011;22748;8.426;99.512;2023-02-13T02:51:13;15.95;;;13.57;;
36797;SDS011;22748;8.426;99.512;2023-02-13T02:53:52;19.85;;;14.63;;
36797;SDS011;22748;8.426;99.512;2023-02-13T02:56:50;18.17;;;15.20;;
36797;SDS011;22748;8.426;99.512;2023-02-13T02:59:24;18.50;;;14.32;;
36797;SDS011;22748;8.426;99.512;2023-02-13T03:02:09;18.52;;;14.35;;
36797;SDS011;22748;8.426;99.512;2023-02-13T03:04:57;19.08;;;14.68;;
36797;SDS011;22748;8.426;99.512;2023-02-13T03:07:41;18.08;;;14.35;;
36797;SDS011;22748;8.426;99.512;2023-02-13T03:10:14;20.40;;;14.95;;
36797;SDS011;22748;8.426;99.512;2023-02-13T03:13:02;19.13;;;14.48;;
36797;SDS011;22748;8.426;99.512;2023-02-13T03:15:52;17.50;;;15.68;;
36797;SDS011;22748;8.426;99.512;2023-02-13T03:18:40;16.73;;;13.38;;
36797;SDS011;22748;8.426;99.512;2023-02-13T03:21:29;16.23;;;12.68;;
36797;SDS011;22748;8.426;99.512;2023-02-13T03:24:24;17.13;;;14.48;;
36797;SDS011;22748;8.426;99.512;2023-02-13T03:27:02;17.08;;;14.85;;
36797;SDS011;22748;8.426;99.512;2023-02-13T03:29:42;16.80;;;15.00;;
36797;SDS011;22748;8.426;99.512;2023-02-13T03:32:30;15.43;;;13.82;;
36797;SDS011;22748;8.426;99.512;2023-02-13T03:35:18;15.27;;;13.55;;
36797;SDS011;22748;8.426;99.512;2023-02-13T03:38:13;18.02;;;13.68;;
36797;SDS011;22748;8.426;99.512;2023-02-13T03:40:48;16.27;;;14.57;;
36797;SDS011;22748;8.426;99.512;2023-02-13T03:43:38;14.95;;;13.45;;
36797;SDS011;22748;8.426;99.512;2023-02-13T03:46:15;17.00;;;14.48;;
36797;SDS011;22748;8.426;99.512;2023-02-13T03:48:47;16.55;;;14.80;;
36797;SDS011;22748;8.426;99.512;2023-02-13T03:51:31;16.67;;;14.43;;
36797;SDS011;22748;8.426;99.512;2023-02-13T03:54:11;15.32;;;13.68;;
36797;SDS011;22748;8.426;99.512;2023-02-13T03:57:09;15.90;;;14.07;;
36797;SDS011;22748;8.426;99.512;2023-02-13T03:59:56;22.92;;;17.92;;
36797;SDS011;22748;8.426;99.512;2023-02-13T04:02:31;20.80;;;16.67;;
36797;SDS011;22748;8.426;99.512;2023-02-13T04:05:07;16.00;;;14.27;;
36797;SDS011;22748;8.426;99.512;2023-02-13T04:07:43;15.52;;;13.60;;
36797;SDS011;22748;8.426;99.512;2023-02-13T04:10:17;19.75;;;14.50;;
36797;SDS011;22748;8.426;99.512;2023-02-13T04:12:51;14.82;;;13.10;;
36797;SDS011;22748;8.426;99.512;2023-02-13T04:15:28;15.48;;;13.02;;
36797;SDS011;22748;8.426;99.512;2023-02-13T04:18:06;14.20;;;12.80;;
36797;SDS011;22748;8.426;99.512;2023-02-13T04:20:41;17.40;;;13.27;;
36797;SDS011;22748;8.426;99.512;2023-02-13T04:23:14;14.90;;;13.40;;
36797;SDS011;22748;8.426;99.512;2023-02-13T04:25:53;14.63;;;13.10;;
36797;SDS011;22748;8.426;99.512;2023-02-13T04:28:25;16.35;;;13.43;;
36797;SDS011;22748;8.426;99.512;2023-02-13T04:30:55;17.45;;;13.07;;
36797;SDS011;22748;8.426;99.512;2023-02-13T04:33:26;18.20;;;13.18;;
36797;SDS011;22748;8.426;99.512;2023-02-13T04:35:55;15.25;;;13.13;;
36797;SDS011;22748;8.426;99.512;2023-02-13T04:38:25;14.52;;;13.07;;
36797;SDS011;22748;8.426;99.512;2023-02-13T04:40:57;15.82;;;13.57;;
36797;SDS011;22748;8.426;99.512;2023-02-13T04:43:27;15.73;;;13.43;;
36797;SDS011;22748;8.426;99.512;2023-02-13T04:46:03;21.10;;;14.23;;
36797;SDS011;22748;8.426;99.512;2023-02-13T04:48:38;19.10;;;14.88;;
36797;SDS011;22748;8.426;99.512;2023-02-13T04:51:08;15.80;;;14.18;;
36797;SDS011;22748;8.426;99.512;2023-02-13T04:53:38;16.80;;;13.98;;
36797;SDS011;22748;8.426;99.512;2023-02-13T04:56:14;16.55;;;14.73;;
36797;SDS011;22748;8.426;99.512;2023-02-13T04:58:44;16.55;;;14.10;;
36797;SDS011;22748;8.426;99.512;2023-02-13T05:01:15;17.48;;;13.60;;
36797;SDS011;22748;8.426;99.512;2023-02-13T05:03:45;16.92;;;13.60;;
36797;SDS011;22748;8.426;99.512;2023-02-13T05:06:15;16.38;;;14.50;;
36797;SDS011;22748;8.426;99.512;2023-02-13T05:08:45;15.15;;;13.52;;
36797;SDS011;22748;8.426;99.512;2023-02-13T05:11:17;15.45;;;13.85;;
36797;SDS011;22748;8.426;99.512;2023-02-13T05:13:46;16.23;;;14.52;;
36797;SDS011;22748;8.426;99.512;2023-02-13T05:16:20;15.60;;;14.00;;
36797;SDS011;22748;8.426;99.512;2023-02-13T05:18:50;15.38;;;13.90;;
36797;SDS011;22748;8.426;99.512;2023-02-13T05:21:20;15.27;;;13.77;;
36797;SDS011;22748;8.426;99.512;2023-02-13T05:24:03;16.40;;;14.77;;
36797;SDS011;22748;8.426;99.512;2023-02-13T05:26:35;15.77;;;14.18;;
36797;SDS011;22748;8.426;99.512;2023-02-13T05:29:04;15.18;;;13.57;;
36797;SDS011;22748;8.426;99.512;2023-02-13T05:31:48;15.20;;;13.68;;
36797;SDS011;22748;8.426;99.512;2023-02-13T05:34:21;14.77;;;13.30;;
36797;SDS011;22748;8.426;99.512;2023-02-13T05:36:51;15.05;;;13.55;;
36797;SDS011;22748;8.426;99.512;2023-02-13T05:39:22;14.50;;;13.15;;
36797;SDS011;22748;8.426;99.512;2023-02-13T05:41:54;17.55;;;14.80;;
36797;SDS011;22748;8.426;99.512;2023-02-13T05:44:24;16.52;;;14.00;;
36797;SDS011;22748;8.426;99.512;2023-02-13T05:46:55;15.85;;;14.18;;
36797;SDS011;22748;8.426;99.512;2023-02-13T05:49:26;16.30;;;14.60;;
36797;SDS011;22748;8.426;99.512;2023-02-13T05:51:56;17.40;;;14.15;;
36797;SDS011;22748;8.426;99.512;2023-02-13T05:54:26;16.98;;;14.40;;
36797;SDS011;22748;8.426;99.512;2023-02-13T05:56:58;16.38;;;14.65;;
36797;SDS011;22748;8.426;99.512;2023-02-13T05:59:28;15.57;;;13.98;;
36797;SDS011;22748;8.426;99.512;2023-02-13T06:01:59;16.02;;;14.43;;
36797;SDS011;22748;8.426;99.512;2023-02-13T06:04:32;17.20;;;14.80;;
36797;SDS011;22748;8.426;99.512;2023-02-13T06:07:02;17.00;;;14.75;;
36797;SDS011;22748;8.426;99.512;2023-02-13T06:09:33;17.02;;;15.20;;
36797;SDS011;22748;8.426;99.512;2023-02-13T06:12:05;16.15;;;14.55;;
36797;SDS011;22748;8.426;99.512;2023-02-13T06:14:37;16.30;;;14.70;;
36797;SDS011;22748;8.426;99.512;2023-02-13T06:17:10;18.50;;;14.55;;
36797;SDS011;22748;8.426;99.512;2023-02-13T06:19:43;20.75;;;15.45;;
36797;SDS011;22748;8.426;99.512;2023-02-13T06:22:13;15.73;;;14.13;;
36797;SDS011;22748;8.426;99.512;2023-02-13T06:24:53;16.63;;;15.00;;
36797;SDS011;22748;8.426;99.512;2023-02-13T06:27:25;16.42;;;14.75;;
36797;SDS011;22748;8.426;99.512;2023-02-13T06:29:58;15.45;;;14.05;;
36797;SDS011;22748;8.426;99.512;2023-02-13T06:32:29;16.75;;;14.80;;
36797;SDS011;22748;8.426;99.512;2023-02-13T06:34:59;16.30;;;14.60;;
36797;SDS011;22748;8.426;99.512;2023-02-13T06:37:30;15.98;;;14.32;;
36797;SDS011;22748;8.426;99.512;2023-02-13T06:39:59;25.20;;;22.10;;
36797;SDS011;22748;8.426;99.512;2023-02-13T06:42:31;18.58;;;16.25;;
36797;SDS011;22748;8.426;99.512;2023-02-13T06:45:05;17.65;;;15.25;;
36797;SDS011;22748;8.426;99.512;2023-02-13T06:50:07;19.92;;;15.20;;
36797;SDS011;22748;8.426;99.512;2023-02-13T06:52:38;16.77;;;14.98;;
36797;SDS011;22748;8.426;99.512;2023-02-13T06:55:12;16.65;;;14.95;;
36797;SDS011;22748;8.426;99.512;2023-02-13T06:57:44;15.55;;;13.57;;
36797;SDS011;22748;8.426;99.512;2023-02-13T07:00:18;15.80;;;14.25;;
36797;SDS011;22748;8.426;99.512;2023-02-13T07:02:49;17.52;;;14.75;;
36797;SDS011;22748;8.426;99.512;2023-02-13T07:05:19;15.48;;;13.90;;
36797;SDS011;22748;8.426;99.512;2023-02-13T07:07:49;16.40;;;14.20;;
36797;SDS011;22748;8.426;99.512;2023-02-13T07:10:18;15.57;;;14.07;;
36797;SDS011;22748;8.426;99.512;2023-02-13T07:12:50;15.35;;;13.88;;
36797;SDS011;22748;8.426;99.512;2023-02-13T07:15:20;16.05;;;13.55;;
36797;SDS011;22748;8.426;99.512;2023-02-13T07:17:54;15.13;;;13.65;;
36797;SDS011;22748;8.426;99.512;2023-02-13T07:20:27;15.02;;;13.52;;
36797;SDS011;22748;8.426;99.512;2023-02-13T07:22:57;14.68;;;13.05;;
36797;SDS011;22748;8.426;99.512;2023-02-13T07:25:27;16.05;;;12.73;;
36797;SDS011;22748;8.426;99.512;2023-02-13T07:28:03;15.05;;;11.98;;
36797;SDS011;22748;8.426;99.512;2023-02-13T07:30:38;13.95;;;12.63;;
36797;SDS011;22748;8.426;99.512;2023-02-13T07:33:08;14.52;;;13.00;;
36797;SDS011;22748;8.426;99.512;2023-02-13T07:35:38;12.88;;;11.68;;
36797;SDS011;22748;8.426;99.512;2023-02-13T07:38:17;13.10;;;11.57;;
36797;SDS011;22748;8.426;99.512;2023-02-13T07:40:47;13.07;;;11.77;;
36797;SDS011;22748;8.426;99.512;2023-02-13T07:43:21;12.95;;;11.65;;
36797;SDS011;22748;8.426;99.512;2023-02-13T07:45:57;13.73;;;12.40;;
36797;SDS011;22748;8.426;99.512;2023-02-13T07:48:35;12.93;;;11.57;;
36797;SDS011;22748;8.426;99.512;2023-02-13T07:51:06;13.05;;;10.73;;
36797;SDS011;22748;8.426;99.512;2023-02-13T07:53:43;13.48;;;12.07;;
36797;SDS011;22748;8.426;99.512;2023-02-13T07:56:15;12.48;;;11.27;;
36797;SDS011;22748;8.426;99.512;2023-02-13T08:03:48;12.15;;;10.93;;
36797;SDS011;22748;8.426;99.512;2023-02-13T08:06:18;15.38;;;12.05;;
36797;SDS011;22748;8.426;99.512;2023-02-13T08:08:54;12.98;;;11.77;;
36797;SDS011;22748;8.426;99.512;2023-02-13T08:11:36;11.15;;;10.10;;
36797;SDS011;22748;8.426;99.512;2023-02-13T08:14:21;8.80;;;8.00;;
36797;SDS011;22748;8.426;99.512;2023-02-13T08:16:53;13.60;;;11.68;;
36797;SDS011;22748;8.426;99.512;2023-02-13T08:19:27;16.17;;;9.73;;
36797;SDS011;22748;8.426;99.512;2023-02-13T08:21:59;14.38;;;9.27;;
36797;SDS011;22748;8.426;99.512;2023-02-13T08:24:29;11.07;;;10.05;;
36797;SDS011;22748;8.426;99.512;2023-02-13T08:27:00;15.00;;;10.73;;
36797;SDS011;22748;8.426;99.512;2023-02-13T08:29:32;12.82;;;11.20;;
36797;SDS011;22748;8.426;99.512;2023-02-13T08:32:01;11.30;;;10.15;;
36797;SDS011;22748;8.426;99.512;2023-02-13T08:34:31;12.00;;;10.17;;
36797;SDS011;22748;8.426;99.512;2023-02-13T08:37:01;11.93;;;10.73;;
36797;SDS011;22748;8.426;99.512;2023-02-13T08:39:32;12.40;;;10.77;;
36797;SDS011;22748;8.426;99.512;2023-02-13T08:42:02;12.57;;;11.02;;
36797;SDS011;22748;8.426;99.512;2023-02-13T08:44:36;12.65;;;10.27;;
36797;SDS011;22748;8.426;99.512;2023-02-13T08:47:07;12.63;;;11.13;;
36797;SDS011;22748;8.426;99.512;2023-02-13T08:49:37;10.65;;;9.57;;
36797;SDS011;22748;8.426;99.512;2023-02-13T08:52:08;10.77;;;9.65;;
36797;SDS011;22748;8.426;99.512;2023-02-13T08:54:39;11.38;;;10.27;;
36797;SDS011;22748;8.426;99.512;2023-02-13T08:57:12;12.25;;;10.82;;
36797;SDS011;22748;8.426;99.512;2023-02-13T08:59:44;13.57;;;10.52;;
36797;SDS011;22748;8.426;99.512;2023-02-13T09:02:18;11.25;;;10.10;;
36797;SDS011;22748;8.426;99.512;2023-02-13T09:04:53;13.80;;;11.23;;
36797;SDS011;22748;8.426;99.512;2023-02-13T09:07:24;12.45;;;10.07;;
36797;SDS011;22748;8.426;99.512;2023-02-13T09:09:53;10.10;;;9.18;;
36797;SDS011;22748;8.426;99.512;2023-02-13T09:12:25;9.60;;;8.55;;
36797;SDS011;22748;8.426;99.512;2023-02-13T09:14:59;10.70;;;8.85;;
36797;SDS011;22748;8.426;99.512;2023-02-13T09:17:30;10.38;;;9.38;;
36797;SDS011;22748;8.426;99.512;2023-02-13T09:20:00;10.02;;;9.07;;
36797;SDS011;22748;8.426;99.512;2023-02-13T09:22:31;10.10;;;8.85;;
36797;SDS011;22748;8.426;99.512;2023-02-13T09:25:02;11.30;;;10.20;;
36797;SDS011;22748;8.426;99.512;2023-02-13T09:27:33;10.70;;;9.60;;
36797;SDS011;22748;8.426;99.512;2023-02-13T09:30:11;13.30;;;11.20;;
36797;SDS011;22748;8.426;99.512;2023-02-13T09:32:48;10.82;;;9.73;;
36797;SDS011;22748;8.426;99.512;2023-02-13T09:35:18;14.10;;;11.80;;
36797;SDS011;22748;8.426;99.512;2023-02-13T09:37:49;12.43;;;11.15;;
36797;SDS011;22748;8.426;99.512;2023-02-13T09:40:20;12.07;;;11.02;;
36797;SDS011;22748;8.426;99.512;2023-02-13T09:42:56;12.75;;;11.40;;
36797;SDS011;22748;8.426;99.512;2023-02-13T09:45:34;17.95;;;12.65;;
36797;SDS011;22748;8.426;99.512;2023-02-13T09:48:07;14.55;;;13.05;;
36797;SDS011;22748;8.426;99.512;2023-02-13T09:50:43;14.25;;;12.05;;
36797;SDS011;22748;8.426;99.512;2023-02-13T09:53:15;13.55;;;12.15;;
36797;SDS011;22748;8.426;99.512;2023-02-13T09:55:53;14.23;;;12.05;;
36797;SDS011;22748;8.426;99.512;2023-02-13T09:58:32;12.95;;;11.48;;
36797;SDS011;22748;8.426;99.512;2023-02-13T10:01:16;14.40;;;12.00;;
36797;SDS011;22748;8.426;99.512;2023-02-13T10:03:54;11.48;;;10.25;;
36797;SDS011;22748;8.426;99.512;2023-02-13T10:06:43;10.65;;;7.60;;
36797;SDS011;22748;8.426;99.512;2023-02-13T10:09:21;11.65;;;8.10;;
36797;SDS011;22748;8.426;99.512;2023-02-13T10:12:04;7.78;;;5.55;;
36797;SDS011;22748;8.426;99.512;2023-02-13T10:14:44;6.47;;;5.50;;
36797;SDS011;22748;8.426;99.512;2023-02-13T10:17:25;7.90;;;5.78;;
36797;SDS011;22748;8.426;99.512;2023-02-13T10:20:04;6.38;;;5.78;;
36797;SDS011;22748;8.426;99.512;2023-02-13T10:22:43;5.93;;;4.93;;
36797;SDS011;22748;8.426;99.512;2023-02-13T10:25:21;5.57;;;5.05;;
36797;SDS011;22748;8.426;99.512;2023-02-13T10:27:53;5.30;;;4.80;;
36797;SDS011;22748;8.426;99.512;2023-02-13T10:30:28;5.47;;;4.72;;
36797;SDS011;22748;8.426;99.512;2023-02-13T10:33:03;8.63;;;5.25;;
36797;SDS011;22748;8.426;99.512;2023-02-13T10:36:01;5.70;;;5.20;;
36797;SDS011;22748;8.426;99.512;2023-02-13T10:39:08;6.35;;;4.30;;
36797;SDS011;22748;8.426;99.512;2023-02-13T10:42:15;6.32;;;4.47;;
36797;SDS011;22748;8.426;99.512;2023-02-13T10:45:18;4.85;;;4.45;;
36797;SDS011;22748;8.426;99.512;2023-02-13T10:50:41;4.40;;;4.00;;
36797;SDS011;22748;8.426;99.512;2023-02-13T10:53:29;7.20;;;4.78;;
36797;SDS011;22748;8.426;99.512;2023-02-13T10:56:19;7.90;;;4.55;;
36797;SDS011;22748;8.426;99.512;2023-02-13T11:01:55;6.10;;;5.45;;
36797;SDS011;22748;8.426;99.512;2023-02-13T11:04:29;6.03;;;5.35;;
36797;SDS011;22748;8.426;99.512;2023-02-13T11:07:00;9.38;;;5.57;;
36797;SDS011;22748;8.426;99.512;2023-02-13T11:09:32;9.02;;;5.55;;
36797;SDS011;22748;8.426;99.512;2023-02-13T11:12:22;12.40;;;9.80;;
36797;SDS011;22748;8.426;99.512;2023-02-13T11:14:54;11.50;;;9.57;;
36797;SDS011;22748;8.426;99.512;2023-02-13T11:17:25;14.48;;;11.32;;
36797;SDS011;22748;8.426;99.512;2023-02-13T11:20:00;15.98;;;12.05;;
36797;SDS011;22748;8.426;99.512;2023-02-13T11:22:34;17.98;;;13.93;;
36797;SDS011;22748;8.426;99.512;2023-02-13T11:25:16;17.83;;;14.02;;
36797;SDS011;22748;8.426;99.512;2023-02-13T11:27:48;17.35;;;13.95;;
36797;SDS011;22748;8.426;99.512;2023-02-13T11:30:33;17.10;;;13.73;;
36797;SDS011;22748;8.426;99.512;2023-02-13T11:36:27;19.40;;;13.02;;
36797;SDS011;22748;8.426;99.512;2023-02-13T11:38:58;19.70;;;13.18;;
36797;SDS011;22748;8.426;99.512;2023-02-13T11:41:30;19.55;;;12.25;;
36797;SDS011;22748;8.426;99.512;2023-02-13T11:44:21;14.55;;;10.80;;
36797;SDS011;22748;8.426;99.512;2023-02-13T11:47:00;10.20;;;7.63;;
36797;SDS011;22748;8.426;99.512;2023-02-13T11:49:30;12.18;;;7.88;;
36797;SDS011;22748;8.426;99.512;2023-02-13T11:52:09;11.43;;;9.40;;
36797;SDS011;22748;8.426;99.512;2023-02-13T11:54:55;10.40;;;9.05;;
36797;SDS011;22748;8.426;99.512;2023-02-13T11:57:29;9.57;;;8.15;;
36797;SDS011;22748;8.426;99.512;2023-02-13T12:00:08;9.20;;;7.97;;
36797;SDS011;22748;8.426;99.512;2023-02-13T12:02:56;13.77;;;8.63;;
36797;SDS011;22748;8.426;99.512;2023-02-13T12:05:26;12.57;;;8.60;;
36797;SDS011;22748;8.426;99.512;2023-02-13T12:07:58;11.88;;;8.02;;
36797;SDS011;22748;8.426;99.512;2023-02-13T12:10:29;12.80;;;8.80;;
36797;SDS011;22748;8.426;99.512;2023-02-13T12:13:01;12.38;;;8.52;;
36797;SDS011;22748;8.426;99.512;2023-02-13T12:15:42;10.82;;;7.97;;
36797;SDS011;22748;8.426;99.512;2023-02-13T12:18:20;13.00;;;8.18;;
36797;SDS011;22748;8.426;99.512;2023-02-13T12:21:00;12.70;;;8.93;;
36797;SDS011;22748;8.426;99.512;2023-02-13T12:23:48;13.45;;;9.27;;
36797;SDS011;22748;8.426;99.512;2023-02-13T12:26:30;20.25;;;11.40;;
36797;SDS011;22748;8.426;99.512;2023-02-13T12:29:07;18.48;;;13.35;;
36797;SDS011;22748;8.426;99.512;2023-02-13T12:32:03;16.98;;;13.88;;
36797;SDS011;22748;8.426;99.512;2023-02-13T12:37:43;24.08;;;15.82;;
36797;SDS011;22748;8.426;99.512;2023-02-13T12:40:37;26.15;;;18.17;;
36797;SDS011;22748;8.426;99.512;2023-02-13T12:43:29;29.50;;;18.70;;
36797;SDS011;22748;8.426;99.512;2023-02-13T12:46:17;25.27;;;18.80;;
36797;SDS011;22748;8.426;99.512;2023-02-13T12:48:56;25.08;;;17.85;;
36797;SDS011;22748;8.426;99.512;2023-02-13T12:51:42;24.48;;;17.42;;
36797;SDS011;22748;8.426;99.512;2023-02-13T12:54:24;22.52;;;15.85;;
36797;SDS011;22748;8.426;99.512;2023-02-13T12:57:09;20.88;;;15.10;;
36797;SDS011;22748;8.426;99.512;2023-02-13T12:59:54;22.33;;;15.10;;
36797;SDS011;22748;8.426;99.512;2023-02-13T13:02:45;24.75;;;14.82;;
36797;SDS011;22748;8.426;99.512;2023-02-13T13:05:30;22.33;;;14.38;;
36797;SDS011;22748;8.426;99.512;2023-02-13T13:08:18;18.92;;;13.93;;
36797;SDS011;22748;8.426;99.512;2023-02-13T13:11:08;24.40;;;14.48;;
36797;SDS011;22748;8.426;99.512;2023-02-13T13:13:59;19.27;;;13.68;;
36797;SDS011;22748;8.426;99.512;2023-02-13T13:19:12;18.10;;;13.40;;
36797;SDS011;22748;8.426;99.512;2023-02-13T13:21:54;23.02;;;14.57;;
36797;SDS011;22748;8.426;99.512;2023-02-13T13:24:32;23.35;;;14.88;;
36797;SDS011;22748;8.426;99.512;2023-02-13T13:27:12;27.00;;;14.68;;
36797;SDS011;22748;8.426;99.512;2023-02-13T13:29:50;19.20;;;13.63;;
36797;SDS011;22748;8.426;99.512;2023-02-13T13:32:24;22.45;;;14.77;;
36797;SDS011;22748;8.426;99.512;2023-02-13T13:35:18;24.63;;;15.18;;
36797;SDS011;22748;8.426;99.512;2023-02-13T13:38:13;41.40;;;24.98;;
36797;SDS011;22748;8.426;99.512;2023-02-13T13:40:50;37.78;;;27.80;;
36797;SDS011;22748;8.426;99.512;2023-02-13T13:43:30;40.40;;;29.35;;
36797;SDS011;22748;8.426;99.512;2023-02-13T13:46:10;41.92;;;30.00;;
36797;SDS011;22748;8.426;99.512;2023-02-13T13:48:51;39.15;;;28.25;;
36797;SDS011;22748;8.426;99.512;2023-02-13T13:52:08;36.42;;;25.00;;
36797;SDS011;22748;8.426;99.512;2023-02-13T13:54:48;34.20;;;23.23;;
36797;SDS011;22748;8.426;99.512;2023-02-13T13:57:26;27.13;;;20.35;;
36797;SDS011;22748;8.426;99.512;2023-02-13T14:00:40;24.20;;;19.10;;
36797;SDS011;22748;8.426;99.512;2023-02-13T14:03:35;29.17;;;19.92;;
36797;SDS011;22748;8.426;99.512;2023-02-13T14:06:06;27.98;;;19.80;;
36797;SDS011;22748;8.426;99.512;2023-02-13T14:18:46;27.75;;;20.13;;
36797;SDS011;22748;8.426;99.512;2023-02-13T14:21:41;20.67;;;17.27;;
36797;SDS011;22748;8.426;99.512;2023-02-13T14:24:13;26.15;;;18.92;;
36797;SDS011;22748;8.426;99.512;2023-02-13T14:26:48;31.23;;;21.98;;
36797;SDS011;22748;8.426;99.512;2023-02-13T14:32:42;23.45;;;18.48;;
36797;SDS011;22748;8.426;99.512;2023-02-13T14:35:17;25.38;;;18.20;;
36797;SDS011;22748;8.426;99.512;2023-02-13T14:37:52;27.27;;;18.10;;
36797;SDS011;22748;8.426;99.512;2023-02-13T14:40:29;25.02;;;17.90;;
36797;SDS011;22748;8.426;99.512;2023-02-13T14:43:21;29.02;;;18.48;;
36797;SDS011;22748;8.426;99.512;2023-02-13T14:46:06;23.63;;;17.40;;
36797;SDS011;22748;8.426;99.512;2023-02-13T14:55:02;26.38;;;17.55;;
36797;SDS011;22748;8.426;99.512;2023-02-13T14:57:36;21.95;;;16.50;;
36797;SDS011;22748;8.426;99.512;2023-02-13T15:00:15;23.55;;;16.77;;
36797;SDS011;22748;8.426;99.512;2023-02-13T15:02:54;25.70;;;17.73;;
36797;SDS011;22748;8.426;99.512;2023-02-13T15:05:28;20.83;;;16.10;;
36797;SDS011;22748;8.426;99.512;2023-02-13T15:08:04;26.35;;;18.00;;
36797;SDS011;22748;8.426;99.512;2023-02-13T15:10:41;22.50;;;17.08;;
36797;SDS011;22748;8.426;99.512;2023-02-13T15:13:14;21.90;;;17.20;;
36797;SDS011;22748;8.426;99.512;2023-02-13T15:15:49;23.70;;;16.75;;
36797;SDS011;22748;8.426;99.512;2023-02-13T15:18:23;22.70;;;15.10;;
36797;SDS011;22748;8.426;99.512;2023-02-13T15:20:56;24.48;;;15.70;;
36797;SDS011;22748;8.426;99.512;2023-02-13T15:23:30;20.63;;;14.45;;
36797;SDS011;22748;8.426;99.512;2023-02-13T15:26:01;16.42;;;13.80;;
36797;SDS011;22748;8.426;99.512;2023-02-13T15:28:33;21.63;;;13.88;;
36797;SDS011;22748;8.426;99.512;2023-02-13T15:33:42;20.98;;;14.77;;
36797;SDS011;22748;8.426;99.512;2023-02-13T15:36:38;17.70;;;14.95;;
36797;SDS011;22748;8.426;99.512;2023-02-13T15:39:35;22.33;;;15.65;;
36797;SDS011;22748;8.426;99.512;2023-02-13T15:42:27;22.88;;;16.88;;
36797;SDS011;22748;8.426;99.512;2023-02-13T15:45:19;24.65;;;16.02;;
36797;SDS011;22748;8.426;99.512;2023-02-13T15:47:55;22.73;;;16.98;;
36797;SDS011;22748;8.426;99.512;2023-02-13T15:50:28;23.80;;;16.92;;
36797;SDS011;22748;8.426;99.512;2023-02-13T15:53:02;22.52;;;15.93;;
36797;SDS011;22748;8.426;99.512;2023-02-13T15:55:38;22.35;;;16.75;;
36797;SDS011;22748;8.426;99.512;2023-02-13T15:58:10;21.48;;;15.98;;
36797;SDS011;22748;8.426;99.512;2023-02-13T16:00:41;24.30;;;16.42;;
36797;SDS011;22748;8.426;99.512;2023-02-13T16:03:13;24.17;;;16.23;;
36797;SDS011;22748;8.426;99.512;2023-02-13T16:05:44;18.10;;;14.60;;
36797;SDS011;22748;8.426;99.512;2023-02-13T16:14:11;21.90;;;17.23;;